Ridgecrest, CA (93555)

12:44 AM PDT on September 05, 2015 (GMT -0700)
APRSWXNET | | Change Station
CLOSE
Current Station
Personal Weather Station
Location: Ridgecrest, CA
Elevation: 2391 ft
Nearby Weather Stations

Elev 2391 ft 35.60 °N, 117.70 °W | Updated 19 minutes ago

Clear
Clear
70 °F
Feels Like 70 °F
N
15
Wind Variable Wind from SSW
Gusts 20.0 mph

Today
High -- | Low -- °F
--% Chance of Precip.
Yesterday
High -- | Low -- °F
Precip. -- in
6:25 AM 7:12 PM
Waning Gibbous, 51% visible
Pressure 29.74 in
Visibility 10.0 miles
Clouds Clear
Dew Point 34 °F
Humidity 27%
Rainfall in
Snow Depth Not available.
UV 0 out of 12
Pollen 9.20 out of 12
Air Quality Not available.
Flu Activity Not available.
METAR KNID 050656Z AUTO 19014KT 10SM CLR 22/02 A2980 RMK AO2 SLP071 T02170022 $
Pressure 29.74 in
Visibility 10.0 miles
Clouds Clear
Dew Point 34 °F
Humidity 27%
Rainfall in
Snow Depth Not available.
UV 0 out of 12
Pollen 9.20 out of 12
Air Quality Not available.
Flu Activity Not available.
METAR KNID 050656Z AUTO 19014KT 10SM CLR 22/02 A2980 RMK AO2 SLP071 T02170022 $

10-Day Weather Forecast

×

Almanac

Astronomy

Sep. 05, 2015 Rise Set
Actual Time
Civil Twilight
Nautical Twilight
Astronomical Twilight
Moon
Length of Visible Light
Length of Day
Tomorrow will be .
, % of the Moon is Illuminated

Today's Extremes

State Highs State Lows

Community

WunderPhotos

Upload Photos

1,852,437 photos uploaded!

WunderBlogs® & News

Nearby

Air Quality

  Air Quality AQ Index Pollutant
Not available.

Snow Depth

Station Depth Elevation

Earthquake Activity

City Distance Mag. Time & Date
Minimum magnitude displayed is 2.5.

Coastal Water Temperatures

Place Temperature

Stations

Nearby Weather Stations

Station Location Temp. Windchill Dew Point Humidity Wind Precip. Elev Updated Type